createdAt,value
2022-07-25T00:00:16.238Z,2
2022-07-25T00:05:16.296Z,1
2022-07-25T00:10:19.421Z,1
2022-07-25T00:15:19.422Z,1
2022-07-25T00:20:19.395Z,1
2022-07-25T00:25:19.376Z,1
2022-07-25T00:30:19.525Z,1
2022-07-25T00:35:19.475Z,1
2022-07-25T00:40:19.391Z,1
2022-07-25T00:45:19.462Z,1
2022-07-25T00:50:19.445Z,2
2022-07-25T00:55:16.327Z,1
2022-07-25T01:00:16.383Z,1
2022-07-25T01:05:19.498Z,1
2022-07-25T01:10:19.460Z,1
2022-07-25T01:15:19.558Z,1
2022-07-25T01:20:19.387Z,1
2022-07-25T01:25:19.637Z,1
2022-07-25T01:30:19.458Z,1
2022-07-25T01:35:19.544Z,1
2022-07-25T01:40:19.543Z,1
2022-07-25T01:45:16.459Z,1
2022-07-25T01:50:16.459Z,1
2022-07-25T01:55:19.637Z,0
2022-07-25T02:00:19.642Z,0
2022-07-25T02:05:19.590Z,2
2022-07-25T02:10:19.517Z,1
2022-07-25T02:15:19.502Z,2
2022-07-25T02:20:19.560Z,3
2022-07-25T02:25:19.656Z,2
2022-07-25T02:30:19.569Z,1
2022-07-25T02:35:19.667Z,1
2022-07-25T02:40:16.450Z,1
2022-07-25T02:45:16.495Z,1
2022-07-25T02:50:19.602Z,1
2022-07-25T02:55:19.711Z,1
2022-07-25T03:00:19.697Z,1
2022-07-25T03:05:19.631Z,1
2022-07-25T03:10:19.753Z,2
2022-07-25T03:15:19.687Z,2
2022-07-25T03:20:19.548Z,0
2022-07-25T03:25:21.682Z,0
2022-07-25T03:30:19.630Z,0
2022-07-25T03:35:16.651Z,1
2022-07-25T03:40:19.905Z,1
2022-07-25T03:45:19.796Z,2
2022-07-25T03:50:19.695Z,1
2022-07-25T03:55:19.664Z,1
2022-07-25T04:00:19.051Z,1
2022-07-25T04:05:18.975Z,1
2022-07-25T04:10:18.982Z,1
2022-07-25T04:15:18.907Z,0
2022-07-25T04:20:19.001Z,0
2022-07-25T04:25:18.940Z,2
2022-07-25T04:30:24.145Z,1
2022-07-25T04:35:19.037Z,1
2022-07-25T04:40:15.905Z,1
2022-07-25T04:45:17.699Z,1
2022-07-25T04:50:24.544Z,0
2022-07-25T04:55:19.076Z,0
2022-07-25T05:00:18.997Z,0
2022-07-25T05:05:21.742Z,0
2022-07-25T05:10:19.037Z,0
2022-07-25T05:15:19.058Z,0
2022-07-25T05:20:16.184Z,0
2022-07-25T05:25:19.075Z,0
2022-07-25T05:30:19.345Z,0
2022-07-25T05:35:15.977Z,0
2022-07-25T05:40:19.123Z,0
2022-07-25T05:45:19.071Z,0
2022-07-25T05:50:19.086Z,1
2022-07-25T05:55:19.164Z,0
2022-07-25T06:00:19.186Z,1
2022-07-25T06:05:19.217Z,0
2022-07-25T06:10:19.070Z,0
2022-07-25T06:15:22.853Z,0
2022-07-25T06:20:19.123Z,0
2022-07-25T06:25:15.979Z,0
2022-07-25T06:30:20.060Z,0
2022-07-25T06:35:19.196Z,0
2022-07-25T06:40:19.177Z,0
2022-07-25T06:45:19.192Z,0
2022-07-25T06:50:21.197Z,0
2022-07-25T06:55:19.166Z,4
2022-07-25T07:00:19.212Z,9
2022-07-25T07:05:19.210Z,4
2022-07-25T07:10:19.101Z,6
2022-07-25T07:15:19.126Z,3
2022-07-25T07:20:15.994Z,3
2022-07-25T07:25:16.117Z,1
2022-07-25T07:30:24.249Z,1
2022-07-25T07:35:19.224Z,2
2022-07-25T07:40:19.199Z,2
2022-07-25T07:45:19.205Z,0
2022-07-25T07:50:19.231Z,1
2022-07-25T07:55:19.260Z,3
2022-07-25T08:00:19.302Z,4
2022-07-25T08:05:19.202Z,2
2022-07-25T08:10:16.064Z,1
2022-07-25T08:15:19.198Z,0
2022-07-25T08:20:37.452Z,0
2022-07-25T08:25:19.308Z,0
2022-07-25T08:30:19.317Z,0
2022-07-25T08:35:19.282Z,1
2022-07-25T08:40:19.466Z,2
2022-07-25T08:45:19.326Z,1
2022-07-25T08:50:19.274Z,0
2022-07-25T08:55:19.462Z,0
2022-07-25T09:00:19.419Z,0
2022-07-25T09:05:16.344Z,1
2022-07-25T09:10:16.328Z,0
2022-07-25T09:15:19.416Z,0
2022-07-25T09:20:19.291Z,0
2022-07-25T09:25:19.375Z,0
2022-07-25T09:30:19.421Z,0
2022-07-25T09:35:19.358Z,0
2022-07-25T09:40:19.454Z,0
2022-07-25T09:45:19.660Z,0
2022-07-25T09:50:19.383Z,0
2022-07-25T09:55:19.390Z,0
2022-07-25T10:00:19.467Z,0
2022-07-25T10:05:19.392Z,0
2022-07-25T10:10:19.449Z,0
2022-07-25T10:15:19.367Z,0
2022-07-25T10:20:19.417Z,0
2022-07-25T10:25:19.469Z,0
2022-07-25T10:30:19.484Z,0
2022-07-25T10:35:19.611Z,0
2022-07-25T10:40:19.414Z,0
2022-07-25T10:45:19.414Z,1
2022-07-25T10:50:29.779Z,0
2022-07-25T10:55:16.364Z,1
2022-07-25T11:00:19.427Z,1
2022-07-25T11:05:19.512Z,1
2022-07-25T11:10:19.952Z,2
2022-07-25T11:15:19.522Z,2
2022-07-25T11:20:19.436Z,2
2022-07-25T11:25:19.492Z,2
2022-07-25T11:30:19.498Z,2
2022-07-25T11:35:19.403Z,2
2022-07-25T11:40:19.526Z,3
2022-07-25T11:45:16.590Z,2
2022-07-25T11:50:16.460Z,2
2022-07-25T11:55:19.541Z,2
2022-07-25T12:00:19.592Z,2
2022-07-25T12:05:19.597Z,2
2022-07-25T12:10:19.530Z,2
2022-07-25T12:15:19.600Z,1
2022-07-25T12:20:19.525Z,1
2022-07-25T12:25:19.620Z,1
2022-07-25T12:30:19.640Z,2
2022-07-25T12:35:16.505Z,2
2022-07-25T12:40:16.537Z,1
2022-07-25T12:45:19.662Z,2
2022-07-25T12:50:19.803Z,2
2022-07-25T12:55:19.605Z,1
2022-07-25T13:00:19.670Z,1
2022-07-25T13:05:19.626Z,1
2022-07-25T13:10:19.698Z,0
2022-07-25T13:15:19.704Z,1
2022-07-25T13:20:19.526Z,0
2022-07-25T13:25:19.530Z,0
2022-07-25T13:30:16.686Z,2
2022-07-25T13:35:20.437Z,5
2022-07-25T13:40:19.927Z,5
2022-07-25T13:45:19.626Z,3
2022-07-25T13:50:19.742Z,3
2022-07-25T13:55:19.736Z,3
2022-07-25T14:00:19.763Z,2
2022-07-25T14:05:19.750Z,0
2022-07-25T14:10:19.751Z,0
2022-07-25T14:15:19.759Z,0
2022-07-25T14:20:19.833Z,0
2022-07-25T14:25:16.593Z,0
2022-07-25T14:30:19.850Z,0
2022-07-25T14:35:19.871Z,0
2022-07-25T14:40:19.793Z,0
2022-07-25T14:45:19.796Z,3
2022-07-25T14:50:19.762Z,2
2022-07-25T14:55:19.797Z,1
2022-07-25T15:00:19.846Z,3
2022-07-25T15:05:19.901Z,1
2022-07-25T15:10:19.832Z,0
2022-07-25T15:15:16.836Z,0
2022-07-25T15:20:19.760Z,0
2022-07-25T15:25:59.283Z,0
2022-07-25T15:30:19.779Z,0
2022-07-25T15:35:19.814Z,0
2022-07-25T15:40:19.863Z,0
2022-07-25T15:45:35.191Z,0
2022-07-25T15:50:19.897Z,0
2022-07-25T15:55:19.857Z,0
2022-07-25T16:00:19.868Z,0
2022-07-25T16:05:19.926Z,0
2022-07-25T16:10:16.755Z,4
2022-07-25T16:15:16.829Z,3
2022-07-25T16:20:19.927Z,1
2022-07-25T16:25:19.896Z,1
2022-07-25T16:30:19.916Z,1
2022-07-25T16:35:19.995Z,0
2022-07-25T16:40:21.102Z,1
2022-07-25T16:45:19.960Z,2
2022-07-25T16:50:19.971Z,1
2022-07-25T16:55:19.965Z,0
2022-07-25T17:00:16.851Z,0
2022-07-25T17:05:16.913Z,1
2022-07-25T17:10:19.982Z,0
2022-07-25T17:15:20.107Z,0
2022-07-25T17:20:19.874Z,0
2022-07-25T17:25:20.039Z,0
2022-07-25T17:30:19.955Z,0
2022-07-25T17:35:19.991Z,0
2022-07-25T17:40:19.970Z,0
2022-07-25T17:45:20.045Z,0
2022-07-25T17:50:19.998Z,0
2022-07-25T17:55:16.934Z,0
2022-07-25T18:00:16.840Z,0
2022-07-25T18:05:20.115Z,0
2022-07-25T18:10:20.102Z,0
2022-07-25T18:15:20.127Z,0
2022-07-25T18:20:20.047Z,1
2022-07-25T18:25:19.982Z,3
2022-07-25T18:30:20.049Z,1
2022-07-25T18:35:19.970Z,2
2022-07-25T18:40:20.193Z,0
2022-07-25T18:45:20.047Z,1
2022-07-25T18:50:17.034Z,1
2022-07-25T18:55:20.040Z,0
2022-07-25T19:00:20.062Z,0
2022-07-25T19:05:20.166Z,0
2022-07-25T19:10:20.077Z,0
2022-07-25T19:15:20.367Z,0
2022-07-25T19:20:17.067Z,1
2022-07-25T19:25:20.169Z,1
2022-07-25T19:30:20.226Z,1
2022-07-25T19:35:25.831Z,1
2022-07-25T19:40:16.986Z,1
2022-07-25T19:45:17.120Z,0
2022-07-25T19:50:20.141Z,0
2022-07-25T19:55:20.184Z,0
2022-07-25T20:00:20.144Z,1
2022-07-25T20:05:20.250Z,1
2022-07-25T20:10:20.177Z,1
2022-07-25T20:15:20.262Z,1
2022-07-25T20:20:20.271Z,1
2022-07-25T20:25:20.444Z,2
2022-07-25T20:30:20.195Z,2
2022-07-25T20:35:17.157Z,2
2022-07-25T20:40:17.106Z,2
2022-07-25T20:45:20.315Z,2
2022-07-25T20:50:20.218Z,1
2022-07-25T20:55:20.289Z,0
2022-07-25T21:00:20.275Z,1
2022-07-25T21:05:20.294Z,1
2022-07-25T21:10:20.273Z,1
2022-07-25T21:15:20.251Z,0
2022-07-25T21:20:20.160Z,0
2022-07-25T21:25:17.166Z,0
2022-07-25T21:30:17.186Z,1
2022-07-25T21:35:20.395Z,1
2022-07-25T21:40:20.329Z,1
2022-07-25T21:45:20.278Z,0
2022-07-25T21:50:24.331Z,1
2022-07-25T21:55:20.358Z,1
2022-07-25T22:00:20.336Z,0
2022-07-25T22:05:20.380Z,1
2022-07-25T22:10:20.335Z,2
2022-07-25T22:15:20.403Z,4
2022-07-25T22:20:17.339Z,3
2022-07-25T22:25:17.292Z,1
2022-07-25T22:30:20.398Z,1
2022-07-25T22:35:20.285Z,1
2022-07-25T22:40:20.358Z,1
2022-07-25T22:45:20.672Z,1
2022-07-25T22:50:20.311Z,1
2022-07-25T22:55:20.358Z,1
2022-07-25T23:00:20.308Z,0
2022-07-25T23:05:20.418Z,0
2022-07-25T23:10:20.467Z,1
2022-07-25T23:15:17.356Z,0
2022-07-25T23:20:20.522Z,0
2022-07-25T23:25:20.528Z,0
2022-07-25T23:30:20.474Z,0
2022-07-25T23:35:20.469Z,0
2022-07-25T23:40:20.413Z,1
2022-07-25T23:45:20.498Z,0
2022-07-25T23:50:20.553Z,0
2022-07-25T23:55:20.383Z,0
